• Join FlightAware (Why Join?)
  • Login
  • US Flag 
03:49AM EDT


 

Airport Tracker/Info


-or-


 

Live Flight TrackerFlight Track Log ✈ AWE1201 ✈ 15-Jun-2013 ✈ KCLT - TAPA / ANU

Flight Track Log - Related Links

Times and Time Zones

All times are in EDT time to prevent confusion due to time zone crossing. See the AWE1201 flight status page for this flight to view local times or setup timezone preferences in your user account.

Time Position Orientation Groundspeed Altitude Reporting Facility
EDT Latitude Longitude Course Direction KTS MPH feet Rate Location/Type
11:54AM 35.1886 -80.9358 165° South 172 198 1,800  Level Atlanta Center
11:55AM 35.1678 -80.9339 176° South 162 186 2,700 1,380 Climbing Atlanta Center
11:56AM 35.1092 -80.9236 172° South 227 261 4,000 1,740 Climbing Atlanta Center
11:56AM 35.0567 -80.9128 170° South 249 287 6,000 2,400 Climbing Atlanta Center
11:57AM 34.9452 -80.5826 175° South  Level Estimated
11:57AM 34.9711 -80.9058 176° South 273 314 8,500  Level Atlanta Center
11:58AM 34.8554 -80.4610 180° South  Level Estimated
11:58AM 34.8917 -80.9039 179° South 312 359 10,600  Level Atlanta Center
11:59AM 34.7655 -80.3396 165° South  Level Estimated
11:59AM 34.8039 -80.9019 179° South 312 359 12,100  Level Atlanta Center
12:02PM 34.5861 -80.8903 177° South 370 426 16,500 1,860 Climbing Jacksonville Center
12:03PM 34.4839 -80.8775 174° South 378 435 18,200 1,620 Climbing Jacksonville Center
12:04PM 34.3789 -80.8344 161° South 384 442 19,800 900 Climbing Jacksonville Center
12:05PM 34.2736 -80.7894 161° South 397 457 20,000 300 Climbing Jacksonville Center
12:06PM 34.1683 -80.7317 156° South 403 464 20,400 480 Climbing Jacksonville Center
12:07PM 34.0672 -80.6739 155° Southeast 403 464 21,000 540 Climbing Jacksonville Center
12:08PM 33.9619 -80.6192 157° South 403 464 21,500 480 Climbing Jacksonville Center
12:09PM 33.8567 -80.5642 157° South 403 464 22,000 300 Climbing Jacksonville Center
12:10PM 33.7469 -80.5047 156° South 414 476 22,100 480 Climbing Jacksonville Center
12:11PM 33.6394 -80.4478 156° South 419 482 23,000 1,020 Climbing Jacksonville Center
12:12PM 33.5278 -80.3886 156° South 424 488 24,200 1,260 Climbing Jacksonville Center
12:13PM 33.4181 -80.3294 156° South 430 495 25,600 1,200 Climbing Jacksonville Center
12:14PM 33.3019 -80.2681 156° South 435 501 26,600 1,200 Climbing Jacksonville Center
12:15PM 33.1733 -80.1975 155° Southeast 459 528 28,100 1,200 Climbing Jacksonville Center
12:16PM 33.0486 -80.1319 156° South 484 557 29,000 900 Climbing Jacksonville Center
12:17PM 32.9522 -80.0186 135° Southeast 484 557 29,900 900 Climbing Jacksonville Center
12:18PM 32.9050 -79.8764 112° Southeast 455 524 30,900 540 Climbing Jacksonville Center
12:19PM 32.8597 -79.7297 110° East 455 524 31,000  Climbing Jacksonville Center
12:20PM 32.8142 -79.5831 110° East 455 524 31,000  Level Jacksonville Center
12:21PM 32.7686 -79.4389 111° Southeast 460 529 31,000  Level Jacksonville Center
12:22PM 32.7228 -79.2925 110° East 470 541 31,000  Level Jacksonville Center
12:23PM 32.6747 -79.1464 111° Southeast 470 541 31,000  Level Jacksonville Center
12:24PM 32.6286 -79.0003 111° Southeast 470 541 31,000 -120 Level Jacksonville Center
12:25PM 32.5822 -78.8544 111° Southeast 470 541 30,800 -360 Descending Jacksonville Center
12:26PM 32.5358 -78.7111 111° Southeast 470 541 30,300 -420 Descending Jacksonville Center
12:27PM 32.4872 -78.5656 112° Southeast 470 541 30,000 -180 Descending Jacksonville Center
12:28PM 32.4056 -78.4367 127° Southeast 477 549 30,000  Level Jacksonville Center
12:29PM 32.2803 -78.3836 160° South 455 524 30,000  Level Jacksonville Center
12:30PM 32.1419 -78.3636 173° South 469 540 30,000  Level Jacksonville Center
12:31PM 32.0075 -78.3383 171° South 476 548 30,000  Level Jacksonville Center
12:32PM 31.8667 -78.3136 172° South 496 571 30,000  Level Jacksonville Center
12:33PM 31.7322 -78.2883 171° South 496 571 30,000  Level Jacksonville Center
12:34PM 31.5975 -78.2586 169° South 501 577 30,000  Level Jacksonville Center
12:35PM 31.4608 -78.2311 170° South 501 577 30,000  Level Jacksonville Center
12:36PM 31.3244 -78.2089 172° South 501 577 30,000  Level Jacksonville Center
12:37PM 31.1856 -78.1819 171° South 501 577 30,000  Level Jacksonville Center
12:38PM 31.0508 -78.1522 169° South 506 582 30,000  Level Jacksonville Center
12:39PM 30.9356 -78.1411 175° South 495 570 30,000  Level Jacksonville Center
12:40PM 30.7906 -78.1144 171° South 495 570 30,000  Level Jacksonville Center
12:41PM 30.6561 -78.0875 170° South 495 570 30,000  Level Jacksonville Center
12:42PM 30.5214 -78.0628 171° South 495 570 30,000  Level Jacksonville Center
12:44PM 30.1986 -78.0078 172° South 482 555 30,000  Level Miami Center
12:45PM 30.0675 -77.9872 172° South 482 555 30,000  Level Miami Center
12:46PM 29.9281 -77.9594 170° South 495 570 30,000  Level Miami Center
12:47PM 29.7883 -77.9342 171° South 504 580 30,000  Level Miami Center
12:48PM 29.6447 -77.9042 170° South 504 580 30,000  Level Miami Center
12:49PM 29.5011 -77.8764 170° South 511 588 30,000 -60 Level Miami Center
12:50PM 29.3739 -77.8586 173° South 509 586 29,900  Descending Miami Center
12:51PM 29.2303 -77.8311 171° South 496 571 30,000  Climbing Miami Center
12:52PM 29.1008 -77.8086 171° South 499 574 30,000  Level Miami Center
12:53PM 28.9614 -77.7839 171° South 504 580 30,000  Level Miami Center
12:54PM 28.8319 -77.7614 171° South 504 580 30,000  Level Miami Center
12:55PM 28.6883 -77.7367 171° South 504 580 30,000  Level Miami Center
12:56PM 28.5528 -77.7119 171° South 504 580 30,000  Level Miami Center
12:57PM 28.4192 -77.6894 172° South 504 580 30,000  Level Miami Center
12:58PM 28.2794 -77.6650 171° South 499 574 30,000  Level Miami Center
12:59PM 28.1483 -77.6194 163° South 504 580 30,000  Level Miami Center
01:00PM 28.0381 -77.5314 145° Southeast 482 555 30,000  Level Miami Center
01:01PM 27.9550 -77.4417 136° Southeast 493 567 30,000  Level Miami Center
01:02PM 27.8447 -77.3142 134° Southeast 483 556 30,000  Level Miami Center
01:03PM 27.7511 -77.1967 132° Southeast 473 544 30,000  Level Miami Center
01:04PM 27.6553 -77.0836 134° Southeast 489 563 30,000  Level Miami Center
01:05PM 27.5592 -76.9733 134° Southeast 481 554 30,000  Level Miami Center
01:06PM 27.4842 -76.8889 135° Southeast 487 560 30,000  Level Miami Center
01:07PM 27.3817 -76.7744 135° Southeast 482 555 30,000  Level Miami Center
01:08PM 27.2833 -76.6531 132° Southeast 493 567 30,000  Level Miami Center
01:09PM 27.1892 -76.5408 133° Southeast 500 575 30,000  Level Miami Center
01:10PM 27.0908 -76.4292 135° Southeast 492 566 30,000  Level Miami Center
01:11PM 26.9942 -76.3178 134° Southeast 486 559 30,000 60 Level Miami Center
01:12PM 26.8997 -76.2133 135° Southeast 480 552 30,200 480 Climbing Miami Center
01:13PM 26.8053 -76.0997 133° Southeast 496 571 31,000 360 Climbing Miami Center
01:14PM 26.7106 -75.9933 135° Southeast 490 564 31,000  Level Miami Center
01:15PM 26.6139 -75.8825 134° Southeast 484 557 31,000  Level Miami Center
01:16PM 26.5169 -75.7742 135° Southeast 489 563 31,000  Level Miami Center
01:17PM 26.4200 -75.6636 134° Southeast 489 563 31,000  Level Miami Center
01:18PM 26.3292 -75.5603 134° Southeast 484 557 31,000  Level Miami Center
01:19PM 26.2322 -75.4525 135° Southeast 484 557 31,000  Level Miami Center
01:20PM 26.1328 -75.3450 136° Southeast 490 564 31,000  Level Miami Center
01:21PM 26.0522 -75.2442 132° Southeast 472 543 31,000  Level Miami Center
01:22PM 25.9592 -75.1392 135° Southeast 465 535 31,000  Level Miami Center
01:23PM 25.8514 -75.0297 138° Southeast 478 550 31,000  Level Miami Center
01:24PM 25.7600 -74.9228 133° Southeast 488 562 31,100  Climbing Miami Center
01:25PM 25.6539 -74.8047 135° Southeast 488 562 31,000 -60 Descending Miami Center
01:26PM 25.5564 -74.6958 135° Southeast 482 555 31,000  Level Miami Center
01:27PM 25.4628 -74.5939 135° Southeast 487 560 31,000  Level Miami Center
01:28PM 25.3736 -74.4944 135° Southeast 477 549 31,000  Level Miami Center
01:29PM 25.2819 -74.3858 133° Southeast 477 549 31,000  Level Miami Center
01:30PM 25.1903 -74.2797 134° Southeast 476 548 31,000  Level Miami Center
01:31PM 25.1006 -74.1739 133° Southeast 476 548 31,000  Level Miami Center
01:32PM 25.0108 -74.0703 134° Southeast 469 540 31,000  Level Miami Center
01:33PM 24.9231 -73.9647 133° Southeast 469 540 31,000  Level Miami Center
01:34PM 24.8333 -73.8614 134° Southeast 469 540 31,000  Level Miami Center
01:35PM 24.7456 -73.7608 134° Southeast 464 534 31,000  Level Miami Center
01:36PM 24.6578 -73.6556 133° Southeast 464 534 31,000  Level Miami Center
01:37PM 24.5656 -73.5528 135° Southeast 464 534 31,000  Level Miami Center
01:38PM 24.4775 -73.4433 131° Southeast 464 534 31,000  Level Miami Center
01:39PM 24.3914 -73.3386 132° Southeast 464 534 31,000  Level Miami Center
01:40PM 24.3139 -73.2450 132° Southeast 464 534 31,000  Level Miami Center
01:41PM 24.2256 -73.1358 132° Southeast 466 536 31,000  Level Miami Center
01:42PM 24.1478 -73.0336 130° Southeast 460 529 31,000  Level Miami Center
01:43PM 24.0594 -72.9269 132° Southeast 460 529 31,000  Level Miami Center
01:44PM 23.9689 -72.8208 133° Southeast 465 535 31,000  Level Miami Center
01:45PM 23.8758 -72.7033 131° Southeast 465 535 31,000  Level Miami Center
01:46PM 23.8103 -72.6033 126° Southeast 465 535 31,000  Level Miami Center
01:47PM 23.7358 -72.4811 124° Southeast 465 535 31,000  Level Miami Center
01:48PM 23.6592 -72.3636 125° Southeast 470 541 31,100  Climbing Miami Center
01:49PM 23.5828 -72.2531 127° Southeast 465 535 31,000 -60 Descending Miami Center
01:50PM 23.5100 -72.1311 123° Southeast 465 535 31,000  Level Miami Center
01:51PM 23.4353 -72.0164 125° Southeast 465 535 31,000  Level Miami Center
01:52PM 23.3608 -71.9061 126° Southeast 460 529 31,000  Level Miami Center
01:53PM 23.2858 -71.7892 125° Southeast 460 529 31,000  Level Miami Center
01:54PM 23.2089 -71.6725 126° Southeast 465 535 31,100  Climbing Miami Center
01:55PM 23.1336 -71.5536 125° Southeast 470 541 31,000 -60 Descending Miami Center
01:56PM 23.0544 -71.4397 127° Southeast 470 541 31,000  Level Miami Center
01:57PM 22.9792 -71.3211 125° Southeast 470 541 31,000  Level Miami Center
01:58PM 22.9061 -71.2050 124° Southeast 464 534 31,000  Level Miami Center
01:59PM 22.8308 -71.0933 126° Southeast 464 534 31,100 480 Climbing Miami Center
02:00PM 22.7556 -70.9775 125° Southeast 464 534 32,000 840 Climbing Miami Center
02:01PM 22.6778 -70.8617 126° Southeast 464 534 32,800 900 Climbing Miami Center
02:02PM 22.6022 -70.7461 125° Southeast 464 534 33,800 900 Climbing Miami Center
02:03PM 22.5247 -70.6331 127° Southeast 464 534 34,700 900 Climbing Miami Center
02:04PM 22.4492 -70.5200 126° Southeast 464 534 35,700 840 Climbing Miami Center
02:05PM 22.3664 -70.3939 125° Southeast 464 534 36,400 600 Climbing Miami Center
02:06PM 22.2886 -70.2789 126° Southeast 464 534 37,000 300 Climbing Miami Center
02:07PM 22.2106 -70.1664 127° Southeast 464 534 37,000  Level Miami Center
02:08PM 22.1369 -70.0539 125° Southeast 464 534 37,000  Level Miami Center
02:09PM 22.0589 -69.9414 127° Southeast 464 534 37,000  Level Miami Center
02:10PM 21.9806 -69.8272 126° Southeast 464 534 37,000  Level Miami Center
02:11PM 21.9025 -69.7153 127° Southeast 464 534 37,000  Level Miami Center
02:12PM 21.8286 -69.6075 126° Southeast 456 525 37,000  Level Miami Center
02:13PM 21.7522 -69.4956 126° Southeast 461 531 37,000  Level Miami Center
02:14PM 21.6761 -69.3839 126° Southeast 461 531 37,000  Level Miami Center
02:15PM 21.5997 -69.2722 126° Southeast 461 531 37,000  Level Miami Center
02:16PM 21.5211 -69.1586 127° Southeast 461 531 37,000  Level Miami Center
02:17PM 21.4428 -69.0519 128° Southeast 461 531 37,100  Climbing Miami Center
02:18PM 21.3661 -68.9386 126° Southeast 461 531 37,000 -60 Descending Miami Center
02:19PM 21.2914 -68.8253 125° Southeast 461 531 37,000  Level Miami Center
02:20PM 21.2150 -68.7164 127° Southeast 461 531 37,000  Level Miami Center
02:21PM 21.1319 -68.6061 129° Southeast 466 536 37,000  Level Miami Center
02:22PM 21.0614 -68.4950 124° Southeast 466 536 37,000  Level Miami Center
02:23PM 20.9808 -68.3892 129° Southeast 466 536 37,000  Level Miami Center
02:24PM 20.9058 -68.2786 126° Southeast 461 531 37,000  Level Miami Center
02:25PM 20.8372 -68.1678 124° Southeast 461 531 37,000  Level Miami Center
02:26PM 20.7722 -68.0481 120° Southeast 461 531 37,000  Level Miami Center
02:27PM 20.7072 -67.9306 121° Southeast 461 531 37,000  Level Miami Center
02:28PM 20.6442 -67.8131 120° Southeast 461 531 37,000  Level Miami Center
02:29PM 20.5767 -67.6917 121° Southeast 461 531 37,000  Level Miami Center
02:30PM 20.5075 -67.5772 123° Southeast 456 525 37,000  Level Miami Center
02:31PM 20.4833 -67.5167 113° Southeast 460 529 37,000  Level San Juan Center
02:32PM 20.4167 -67.4000 121° Southeast 460 529 37,000  Level San Juan Center
02:33PM 20.3500 -67.2833 121° Southeast 460 529 37,000  Level San Juan Center
02:34PM 20.2833 -67.1667 121° Southeast 460 529 37,000  Level San Juan Center
02:35PM 20.2333 -67.0500 115° Southeast 450 518 37,000 -540 Level San Juan Center
02:36PM 20.1667 -66.9167 118° Southeast 450 518 36,000 -1,020 Descending San Juan Center
02:37PM 20.1000 -66.8000 121° Southeast 460 529 35,000 -540 Descending San Juan Center
02:38PM 20.0333 -66.6833 121° Southeast 460 529 35,000  Level San Juan Center
02:39PM 19.9667 -66.5667 121° Southeast 460 529 35,000 -240 Level San Juan Center
02:40PM 19.9000 -66.4667 125° Southeast 450 518 34,600 -1,200 Descending San Juan Center
02:41PM 19.8333 -66.3500 121° Southeast 450 518 32,600 -1,800 Descending San Juan Center
02:42PM 19.7833 -66.2333 114° Southeast 450 518 31,000 -840 Descending San Juan Center
02:43PM 19.7167 -66.1167 121° Southeast 460 529 31,000  Level San Juan Center
02:44PM 19.6500 -66.0000 121° Southeast 450 518 31,000  Level San Juan Center
02:45PM 19.5833 -65.8833 121° Southeast 460 529 31,000  Level San Juan Center
02:46PM 19.5167 -65.7667 121° Southeast 450 518 31,000  Level San Juan Center
02:47PM 19.4500 -65.6500 121° Southeast 450 518 31,000  Level San Juan Center
02:48PM 19.3833 -65.5333 121° Southeast 450 518 31,000  Level San Juan Center
02:49PM 19.3167 -65.4167 121° Southeast 450 518 31,100  Climbing San Juan Center
02:50PM 19.2500 -65.3167 125° Southeast 460 529 31,100 -300 Level San Juan Center
02:51PM 19.1833 -65.2000 121° Southeast 460 529 30,600 -780 Descending San Juan Center
02:52PM 19.1167 -65.0833 121° Southeast 460 529 29,600 -780 Descending San Juan Center
02:53PM 19.0500 -64.9500 118° Southeast 460 529 29,100 -300 Descending San Juan Center
02:54PM 18.9833 -64.8333 121° Southeast 460 529 29,100  Level San Juan Center
02:55PM 18.9167 -64.7167 121° Southeast 470 541 29,100  Level San Juan Center
02:56PM 18.8500 -64.6167 125° Southeast 460 529 29,100  Level San Juan Center
02:57PM 18.7833 -64.4833 118° Southeast 470 541 29,100  Level San Juan Center
02:58PM 18.7167 -64.3667 121° Southeast 470 541 29,100  Level San Juan Center
02:59PM 18.6500 -64.2667 125° Southeast 460 529 29,100  Level San Juan Center
03:00PM 18.5833 -64.1333 118° Southeast 460 529 29,100 -60 Level San Juan Center
03:01PM 18.5167 -64.0333 125° Southeast 460 529 29,000 -480 Descending San Juan Center
03:02PM 18.4500 -63.9167 121° Southeast 460 529 28,200 -900 Descending San Juan Center
03:03PM 18.3833 -63.8000 121° Southeast 460 529 27,200 -1,020 Descending San Juan Center
03:04PM 18.3167 -63.6833 121° Southeast 440 506 26,200 -1,080 Descending San Juan Center
03:05PM 18.2500 -63.5667 121° Southeast 450 518 25,100 -600 Descending San Juan Center
03:06PM 18.1833 -63.4500 121° Southeast 440 506 25,100  Level San Juan Center
03:07PM 18.1167 -63.3500 125° Southeast 440 506 25,100 -120 Level San Juan Center
03:08PM 18.0500 -63.2500 125° Southeast 440 506 24,900 -600 Descending San Juan Center
03:09PM 17.9833 -63.1333 121° Southeast 440 506 23,900 -960 Descending San Juan Center
03:10PM 17.9167 -63.0333 125° Southeast 420 483 23,000 -480 Descending San Juan Center
03:11PM 17.8667 -62.9167 114° Southeast 420 483 23,000  Level San Juan Center
03:12PM 17.8000 -62.8167 125° Southeast 420 483 23,000  Level San Juan Center
03:13PM 17.7333 -62.7167 125° Southeast 420 483 23,000  Level San Juan Center
03:14PM 17.6833 -62.6167 118° Southeast 410 472 23,000  Level San Juan Center
03:15PM 17.6167 -62.5167 125° Southeast 420 483 23,000  Level San Juan Center
03:17PM 17.4903 -62.3271 125° Southeast  Level FlightAware Approximate
03:24PM 17.1367 -61.7927 122° Southeast  Level Estimated
03:25PM 17.1367 -61.7927 122° Southeast  Level Estimated
03:26PM 17.1367 -61.7927 122° Southeast  Level Estimated
03:27PM 17.1367 -61.7927 122° Southeast  Level Estimated
03:28PM 17.1367 -61.7927 122° Southeast  Level Estimated
03:29PM 17.1367 -61.7927 122° Southeast  Level Estimated
03:30PM 17.1367 -61.7927 122° Southeast  Level Estimated
03:31PM 17.1367 -61.7927 122° Southeast  Level Estimated
03:32PM 17.1367 -61.7927 122° Southeast  Level Estimated
03:33PM 17.1367 -61.7927 122° Southeast  Level Estimated
03:34PM 17.1367 -61.7927 122° Southeast  Level Estimated
03:35PM 17.1367 -61.7927 122° Southeast  Level Estimated
03:36PM 17.1367 -61.7927 122° Southeast  Level Estimated
03:37PM 17.1367 -61.7927 122° Southeast  Level Estimated
03:38PM 17.1367 -61.7927 122° Southeast  Level Estimated
03:39PM 17.1367 -61.7927 122° Southeast  Level Estimated
03:40PM 17.1367 -61.7927 122° Southeast  Level Estimated
03:41PM 17.1367 -61.7927 122° Southeast  Level Estimated
03:42PM 17.1367 -61.7927 122° Southeast  Level Estimated
03:43PM 17.1367 -61.7927 122° Southeast  Level Estimated
03:44PM 17.1367 -61.7927 122° Southeast  Level Estimated